Time;durP1;ratioP1;P1;durP2;ratioP2;P2;SDS_P1;SDS_P2;PMS_P1;PMS_P2;Temp;Humidity;BMP_temperature;BMP_pressure;BME280_temperature;BME280_humidity;BME280_pressure;Samples;Min_cycle;Max_cycle;Signal;HPM_P1;HPM_P2
2023/03/27 00:00:15;;;;;;;2.55;2.15;;;6.40;47.40;;;;;;7386362;19;20018;-71
2023/03/27 00:02:48;;;;;;;2.10;1.90;;;6.30;47.30;;;;;;7367191;19;20024;-71
2023/03/27 00:05:19;;;;;;;2.90;2.00;;;6.30;48.50;;;;;;7367124;19;20394;-71
2023/03/27 00:07:50;;;;;;;3.08;2.10;;;6.30;48.80;;;;;;7367431;19;20014;-71
2023/03/27 00:10:22;;;;;;;2.47;2.00;;;6.30;49.00;;;;;;7362772;19;20090;-71
2023/03/27 00:12:53;;;;;;;1.65;1.55;;;6.20;48.20;;;;;;7374464;19;20022;-71
2023/03/27 00:15:24;;;;;;;3.05;2.17;;;6.30;49.30;;;;;;7394897;19;20010;-70
2023/03/27 00:17:54;;;;;;;3.10;2.33;;;6.30;48.70;;;;;;7374647;19;20007;-71
2023/03/27 00:20:25;;;;;;;1.73;1.42;;;6.30;48.60;;;;;;7369499;19;20015;-71
2023/03/27 00:22:55;;;;;;;1.73;1.58;;;6.20;46.30;;;;;;7374001;19;20489;-71
2023/03/27 00:25:29;;;;;;;2.80;1.70;;;6.30;46.60;;;;;;7371978;19;20010;-71
2023/03/27 00:28:01;;;;;;;1.63;1.48;;;6.20;43.20;;;;;;7374205;19;20475;-70
2023/03/27 00:30:32;;;;;;;1.80;1.52;;;6.20;42.40;;;;;;7391507;19;20017;-71
2023/03/27 00:33:02;;;;;;;1.58;1.48;;;6.20;41.10;;;;;;7371818;19;20007;-71
2023/03/27 00:35:32;;;;;;;1.30;1.00;;;6.30;41.10;;;;;;7372928;19;20086;-71
2023/03/27 00:38:02;;;;;;;1.65;1.10;;;6.30;39.20;;;;;;7373774;19;20035;-71
2023/03/27 00:40:36;;;;;;;1.40;1.20;;;6.20;35.80;;;;;;7370916;19;19999;-71
2023/03/27 00:43:20;;;;;;;1.67;1.10;;;6.20;35.90;;;;;;7374145;19;20082;-71
2023/03/27 00:45:53;;;;;;;1.20;0.90;;;6.20;31.70;;;;;;7373602;19;20024;-71
2023/03/27 00:48:26;;;;;;;0.93;0.65;;;6.10;29.00;;;;;;7394246;19;20455;-71
2023/03/27 00:50:57;;;;;;;0.93;0.40;;;6.10;26.60;;;;;;7369247;19;20403;-71
2023/03/27 00:53:30;;;;;;;0.65;0.50;;;6.00;22.20;;;;;;7371707;19;20013;-71
2023/03/27 00:56:06;;;;;;;0.88;0.63;;;5.90;23.90;;;;;;7373614;19;20006;-71
2023/03/27 00:58:41;;;;;;;0.90;0.60;;;5.90;24.60;;;;;;7372368;19;20011;-71
2023/03/27 01:01:13;;;;;;;1.15;0.88;;;5.90;23.60;;;;;;7371581;19;20852;-70
2023/03/27 01:03:45;;;;;;;1.00;0.60;;;5.90;23.10;;;;;;7370952;19;20432;-70
2023/03/27 01:06:17;;;;;;;1.27;0.80;;;5.90;24.20;;;;;;7395557;19;20492;-71
2023/03/27 01:08:47;;;;;;;1.20;0.80;;;5.80;23.60;;;;;;7372294;19;20034;-71
2023/03/27 01:11:30;;;;;;;1.15;0.80;;;5.80;23.60;;;;;;7370522;19;20010;-70
2023/03/27 01:14:10;;;;;;;1.33;1.02;;;5.70;24.00;;;;;;7371800;19;20011;-70
2023/03/27 01:16:47;;;;;;;0.98;0.77;;;5.70;24.80;;;;;;7372858;19;20010;-71
2023/03/27 01:19:53;;;;;;;1.20;1.00;;;5.60;24.80;;;;;;7370953;19;20010;-71
2023/03/27 01:22:58;;;;;;;2.65;1.20;;;5.60;24.60;;;;;;7370301;19;20010;-71
2023/03/27 01:25:47;;;;;;;1.40;0.90;;;5.60;21.50;;;;;;7371260;19;20014;-71
2023/03/27 01:28:28;;;;;;;0.93;0.60;;;5.60;18.10;;;;;;7371548;19;20018;-71
2023/03/27 01:31:04;;;;;;;1.50;0.95;;;5.50;12.90;;;;;;7367558;19;20524;-71
2023/03/27 01:33:57;;;;;;;1.55;1.20;;;5.60;15.60;;;;;;7393090;19;20486;-71
2023/03/27 01:36:50;;;;;;;1.20;0.95;;;5.50;16.50;;;;;;7371213;19;20011;-71
2023/03/27 01:39:34;;;;;;;1.10;0.90;;;5.50;16.40;;;;;;7368154;19;20011;-71
2023/03/27 01:42:10;;;;;;;1.70;1.10;;;5.40;15.90;;;;;;7370661;19;20006;-71
2023/03/27 01:44:49;;;;;;;2.85;1.20;;;5.40;16.80;;;;;;7370575;19;20364;-71
2023/03/27 01:47:27;;;;;;;1.67;1.38;;;5.40;18.10;;;;;;7378249;19;20021;-71
2023/03/27 01:50:03;;;;;;;1.33;1.23;;;5.30;20.50;;;;;;7368882;19;20365;-71
2023/03/27 01:52:37;;;;;;;3.17;1.17;;;5.30;21.30;;;;;;7372547;19;20003;-71
2023/03/27 01:55:17;;;;;;;1.47;1.10;;;5.20;21.00;;;;;;7371722;19;20035;-70
2023/03/27 01:57:59;;;;;;;2.65;1.30;;;5.20;19.60;;;;;;7371445;19;20014;-70
2023/03/27 02:00:31;;;;;;;2.03;1.40;;;5.20;20.30;;;;;;7389256;19;20017;-71
2023/03/27 02:03:25;;;;;;;2.90;1.63;;;5.10;21.60;;;;;;7369872;19;20010;-71
2023/03/27 02:05:59;;;;;;;2.58;1.45;;;5.10;23.10;;;;;;7371115;19;20403;-71
2023/03/27 02:08:36;;;;;;;1.73;1.40;;;5.10;23.90;;;;;;7370024;19;20400;-71
2023/03/27 02:11:09;;;;;;;2.60;1.80;;;5.00;23.80;;;;;;7368962;19;20015;-71
2023/03/27 02:13:42;;;;;;;2.10;1.63;;;5.00;25.10;;;;;;7369704;19;20115;-71
2023/03/27 02:16:17;;;;;;;2.33;1.45;;;5.00;21.20;;;;;;7371350;19;20011;-71
2023/03/27 02:18:50;;;;;;;;;;;5.00;23.70;;;;;;7370796;19;20403;-72
2023/03/27 02:21:21;;;;;;;1.70;1.40;;;5.00;24.60;;;;;;7389351;19;20392;-70
2023/03/27 02:23:52;;;;;;;2.72;1.95;;;5.00;24.00;;;;;;7369208;19;20085;-71
2023/03/27 02:26:24;;;;;;;2.58;1.90;;;5.00;25.50;;;;;;7369598;19;20490;-70
2023/03/27 02:29:06;;;;;;;4.10;2.38;;;5.00;26.70;;;;;;7369777;19;20010;-71
2023/03/27 02:31:49;;;;;;;8.25;3.53;;;5.00;27.70;;;;;;7367299;19;20024;-71
2023/03/27 02:34:50;;;;;;;10.63;4.68;;;4.90;28.50;;;;;;7367027;19;20011;-71
2023/03/27 02:37:25;;;;;;;7.72;4.78;;;4.60;26.20;;;;;;7368700;19;20377;-72
2023/03/27 02:40:12;;;;;;;9.68;5.25;;;4.60;25.60;;;;;;7366552;19;20478;-72
2023/03/27 02:42:55;;;;;;;10.25;4.72;;;4.50;25.00;;;;;;7369449;19;20015;-72
2023/03/27 02:45:31;;;;;;;9.63;5.03;;;4.50;23.60;;;;;;7391166;19;20088;-72
2023/03/27 02:48:08;;;;;;;13.18;5.10;;;4.50;24.40;;;;;;7369956;19;20014;-72
2023/03/27 02:50:43;;;;;;;11.90;5.05;;;4.50;21.80;;;;;;7365783;19;20040;-71
2023/03/27 02:53:17;;;;;;;14.10;5.22;;;4.50;23.00;;;;;;7369851;19;20362;-71
2023/03/27 02:55:49;;;;;;;;;;;4.40;22.50;;;;;;7370298;19;20549;-71
2023/03/27 02:58:29;;;;;;;12.05;4.80;;;4.40;22.40;;;;;;7369791;19;19907;-71
2023/03/27 03:01:01;;;;;;;14.05;5.43;;;4.30;21.80;;;;;;7366431;19;20070;-71
2023/03/27 03:03:36;;;;;;;14.65;5.68;;;4.30;22.60;;;;;;7389837;19;20020;-71
2023/03/27 03:06:09;;;;;;;17.65;5.63;;;4.20;22.50;;;;;;7369463;19;20007;-72
2023/03/27 03:08:40;;;;;;;14.63;5.00;;;4.20;20.90;;;;;;7368735;19;20037;-72
2023/03/27 03:11:14;;;;;;;17.52;5.80;;;4.20;21.80;;;;;;7366787;19;20259;-72
2023/03/27 03:13:47;;;;;;;15.68;5.82;;;4.10;22.20;;;;;;7367671;19;20615;-72
2023/03/27 03:16:17;;;;;;;14.57;5.95;;;4.10;19.10;;;;;;7369197;19;20002;-72
2023/03/27 03:18:47;;;;;;;14.10;5.00;;;4.10;19.10;;;;;;7368197;19;20027;-71
2023/03/27 03:21:16;;;;;;;10.10;5.13;;;4.00;17.90;;;;;;7387679;19;20026;-71
2023/03/27 03:23:47;;;;;;;14.38;5.53;;;4.10;19.00;;;;;;7367345;19;20014;-70
2023/03/27 03:26:28;;;;;;;15.80;5.75;;;4.10;19.10;;;;;;7368312;19;20011;-71
2023/03/27 03:29:01;;;;;;;13.88;5.72;;;4.00;19.10;;;;;;7367734;19;20022;-71
2023/03/27 03:31:42;;;;;;;12.45;5.45;;;3.90;19.00;;;;;;7366777;19;20035;-71
2023/03/27 03:34:14;;;;;;;12.43;5.93;;;3.90;19.50;;;;;;7369232;19;20014;-71
2023/03/27 03:36:47;;;;;;;11.65;5.47;;;3.90;18.90;;;;;;7368171;19;20050;-71
2023/03/27 03:39:18;;;;;;;15.82;5.32;;;3.90;18.90;;;;;;7389525;19;20022;-71
2023/03/27 03:41:49;;;;;;;16.67;5.50;;;3.90;18.00;;;;;;7366570;19;20010;-72
2023/03/27 03:44:21;;;;;;;14.32;5.55;;;3.90;17.20;;;;;;7368258;19;20022;-71
2023/03/27 03:46:52;;;;;;;16.52;5.78;;;3.90;18.30;;;;;;7372657;19;20031;-70
2023/03/27 03:49:22;;;;;;;21.33;5.43;;;3.90;17.40;;;;;;7373373;19;20389;-71
2023/03/27 03:51:52;;;;;;;14.57;5.82;;;3.80;17.10;;;;;;7372805;19;20034;-71
2023/03/27 03:54:37;;;;;;;14.18;4.90;;;3.80;17.10;;;;;;7397141;19;20336;-71
2023/03/27 03:57:07;;;;;;;20.40;5.82;;;3.80;15.80;;;;;;7376269;19;20090;-72
2023/03/27 03:59:40;;;;;;;17.23;5.65;;;3.80;15.60;;;;;;7371757;19;20388;-71
2023/03/27 04:02:10;;;;;;;11.10;5.05;;;3.60;14.30;;;;;;7376345;19;20014;-72
2023/03/27 04:04:41;;;;;;;17.80;4.85;;;3.50;13.10;;;;;;7375145;19;20007;-72
2023/03/27 04:07:16;;;;;;;15.50;5.22;;;3.40;13.00;;;;;;7375683;19;20073;-71
2023/03/27 04:09:46;;;;;;;20.08;5.32;;;3.40;12.40;;;;;;7373423;19;20011;-71
2023/03/27 04:12:16;;;;;;;13.80;5.25;;;3.40;13.40;;;;;;7396142;19;20010;-70
2023/03/27 04:14:48;;;;;;;13.93;4.95;;;3.50;15.20;;;;;;7376940;19;20010;-72
2023/03/27 04:17:19;;;;;;;19.38;5.10;;;3.50;14.80;;;;;;7374624;19;20355;-71
2023/03/27 04:19:49;;;;;;;11.20;3.45;;;3.40;13.40;;;;;;7371015;19;20013;-71
2023/03/27 04:22:21;;;;;;;8.88;3.88;;;3.30;11.50;;;;;;7383537;19;20047;-71
2023/03/27 04:24:52;;;;;;;14.88;4.25;;;3.20;12.00;;;;;;7406379;19;20010;-70
2023/03/27 04:27:22;;;;;;;10.32;3.22;;;3.20;11.10;;;;;;7428235;19;20320;-70
2023/03/27 04:29:55;;;;;;;8.15;3.33;;;3.20;11.40;;;;;;7381838;19;20014;-70
2023/03/27 04:32:25;;;;;;;13.35;3.95;;;3.10;7.80;;;;;;7371996;19;20019;-70
2023/03/27 04:34:55;;;;;;;15.27;3.60;;;3.00;7.70;;;;;;7373186;19;20015;-71
2023/03/27 04:37:25;;;;;;;14.52;3.58;;;3.00;8.30;;;;;;7373592;19;20616;-70
2023/03/27 04:39:57;;;;;;;10.40;3.53;;;3.00;7.70;;;;;;7371009;19;20018;-70
2023/03/27 04:42:27;;;;;;;14.13;3.72;;;3.00;8.10;;;;;;7394210;19;20023;-71
2023/03/27 04:45:00;;;;;;;14.50;4.25;;;3.00;9.50;;;;;;7373156;19;20040;-70
2023/03/27 04:47:31;;;;;;;12.15;3.22;;;3.00;8.70;;;;;;7373667;19;20015;-71
2023/03/27 04:50:01;;;;;;;7.60;2.80;;;2.90;6.50;;;;;;7370096;19;20054;-71
2023/03/27 04:52:32;;;;;;;13.23;3.58;;;2.90;6.60;;;;;;7372348;19;20010;-71
2023/03/27 04:55:03;;;;;;;16.98;3.67;;;2.90;4.90;;;;;;7371785;19;20014;-70
2023/03/27 04:57:33;;;;;;;11.55;3.50;;;2.90;5.00;;;;;;7393448;19;20022;-71
2023/03/27 05:00:14;;;;;;;10.98;2.72;;;2.80;4.90;;;;;;7370170;19;20006;-71
2023/03/27 05:02:44;;;;;;;13.50;3.47;;;2.80;5.00;;;;;;7372741;19;20014;-70
2023/03/27 05:05:16;;;;;;;10.18;3.00;;;2.80;3.30;;;;;;7373021;19;20030;-71
2023/03/27 05:07:47;;;;;;;10.73;3.15;;;2.80;1.50;;;;;;7370577;19;20441;-71
2023/03/27 05:10:17;;;;;;;8.07;3.15;;;2.70;2.60;;;;;;7370087;19;20003;-71
2023/03/27 05:12:54;;;;;;;8.82;3.20;;;2.60;1.00;;;;;;7371051;19;20035;-71
2023/03/27 05:15:31;;;;;;;11.88;3.13;;;2.60;1.10;;;;;;7393207;19;20018;-71
2023/03/27 05:18:01;;;;;;;12.43;3.22;;;2.60;1.70;;;;;;7372369;19;20514;-71
2023/03/27 05:20:31;;;;;;;13.02;2.70;;;2.60;1.70;;;;;;7367018;19;20014;-71
2023/03/27 05:23:01;;;;;;;5.97;2.20;;;2.50;1.00;;;;;;7370971;19;20018;-70
2023/03/27 05:25:32;;;;;;;10.48;2.58;;;2.50;1.10;;;;;;7371399;19;20040;-70
2023/03/27 05:28:02;;;;;;;8.68;2.53;;;2.60;1.70;;;;;;7372883;19;20025;-70
2023/03/27 05:30:35;;;;;;;13.30;3.17;;;2.60;1.70;;;;;;7389978;19;20022;-72
2023/03/27 05:33:05;;;;;;;9.75;2.88;;;2.40;1.00;;;;;;7370653;19;20087;-70
2023/03/27 05:35:36;;;;;;;9.23;3.03;;;2.40;1.00;;;;;;7371174;19;20015;-72
2023/03/27 05:38:07;;;;;;;12.60;2.72;;;2.40;1.00;;;;;;7371808;19;20018;-70
2023/03/27 05:40:38;;;;;;;10.18;2.95;;;2.40;1.00;;;;;;7369092;19;20011;-71
2023/03/27 05:43:08;;;;;;;7.15;2.40;;;2.50;1.00;;;;;;7371592;19;20010;-71
2023/03/27 05:45:40;;;;;;;13.32;3.08;;;2.50;1.00;;;;;;7372199;19;20009;-71
2023/03/27 05:48:11;;;;;;;9.40;3.08;;;2.40;1.00;;;;;;7393395;19;20023;-70
2023/03/27 05:50:41;;;;;;;9.88;2.85;;;2.40;1.00;;;;;;7367381;19;20116;-71
2023/03/27 05:53:11;;;;;;;11.80;2.63;;;2.40;1.00;;;;;;7369908;19;20002;-72
2023/03/27 05:55:41;;;;;;;9.43;2.60;;;2.40;1.00;;;;;;7370382;19;20007;-71
2023/03/27 05:58:12;;;;;;;13.65;2.85;;;2.50;1.00;;;;;;7371095;19;20011;-72
2023/03/27 06:00:45;;;;;;;10.40;2.53;;;2.40;1.00;;;;;;7367389;19;20019;-71
2023/03/27 06:03:16;;;;;;;11.57;2.70;;;2.50;1.00;;;;;;7392578;19;20024;-71
2023/03/27 06:05:47;;;;;;;11.60;2.53;;;2.50;1.00;;;;;;7370121;19;20371;-72
2023/03/27 06:08:18;;;;;;;8.45;2.33;;;2.50;1.00;;;;;;7370385;19;20116;-72
2023/03/27 06:10:48;;;;;;;13.00;2.70;;;2.50;1.00;;;;;;7367025;19;20017;-71
2023/03/27 06:13:17;;;;;;;13.15;2.33;;;2.60;1.00;;;;;;7370084;19;20014;-72
2023/03/27 06:15:50;;;;;;;8.35;2.25;;;2.50;1.00;;;;;;7370629;19;20014;-72
2023/03/27 06:18:20;;;;;;;14.38;2.85;;;2.50;1.00;;;;;;7391078;19;20039;-71
2023/03/27 06:20:50;;;;;;;9.70;2.78;;;2.50;1.00;;;;;;7366737;19;20014;-71
2023/03/27 06:23:20;;;;;;;10.68;2.40;;;2.50;1.00;;;;;;7368206;19;20450;-72
2023/03/27 06:25:51;;;;;;;8.38;2.38;;;2.50;1.00;;;;;;7370379;19;20044;-71
2023/03/27 06:28:22;;;;;;;9.20;2.50;;;2.50;1.00;;;;;;7369127;19;20035;-72
2023/03/27 06:30:56;;;;;;;11.95;2.72;;;2.50;1.00;;;;;;7366700;19;20035;-71
2023/03/27 06:33:28;;;;;;;10.38;2.08;;;2.50;1.00;;;;;;7389883;19;20758;-71
2023/03/27 06:35:59;;;;;;;14.07;2.88;;;2.50;1.00;;;;;;7369923;19;20081;-72
2023/03/27 06:38:31;;;;;;;10.27;2.25;;;2.50;1.00;;;;;;7368461;19;20015;-71
2023/03/27 06:41:02;;;;;;;8.27;2.22;;;2.50;1.00;;;;;;7368104;19;20014;-72
2023/03/27 06:43:33;;;;;;;10.32;2.17;;;2.40;1.00;;;;;;7368459;19;20010;-72
2023/03/27 06:46:08;;;;;;;10.40;2.08;;;2.60;1.00;;;;;;7369754;19;20022;-72
2023/03/27 06:48:38;;;;;;;18.05;2.65;;;2.50;1.00;;;;;;7368851;19;20023;-71
2023/03/27 06:51:08;;;;;;;7.85;2.35;;;2.50;1.00;;;;;;7388273;19;20077;-71
2023/03/27 06:53:38;;;;;;;11.90;2.38;;;2.50;1.00;;;;;;7366812;19;20050;-71
2023/03/27 06:56:10;;;;;;;10.82;2.40;;;2.60;1.00;;;;;;7369426;19;20023;-71
2023/03/27 06:58:40;;;;;;;10.38;2.58;;;2.50;1.00;;;;;;7368349;19;20494;-71
2023/03/27 07:01:12;;;;;;;7.70;2.35;;;2.70;1.00;;;;;;7367355;19;20039;-72
2023/03/27 07:03:42;;;;;;;8.43;2.28;;;2.60;1.00;;;;;;7367870;19;20022;-72
2023/03/27 07:06:12;;;;;;;5.40;1.73;;;2.50;1.00;;;;;;7389250;19;20365;-72
2023/03/27 07:08:42;;;;;;;6.00;2.10;;;2.70;1.00;;;;;;7366975;19;20015;-70
2023/03/27 07:11:11;;;;;;;10.80;2.45;;;2.80;1.00;;;;;;7366435;19;20053;-72
2023/03/27 07:13:42;;;;;;;14.30;3.00;;;3.00;1.00;;;;;;7366709;19;20024;-70
2023/03/27 07:16:15;;;;;;;6.00;1.70;;;3.00;1.00;;;;;;7369075;19;20022;-71
2023/03/27 07:18:45;;;;;;;7.30;1.90;;;3.00;1.00;;;;;;7367566;19;20018;-71
2023/03/27 07:21:15;;;;;;;6.45;2.22;;;3.00;1.00;;;;;;7387659;19;20125;-71
2023/03/27 07:23:45;;;;;;;8.40;2.50;;;3.20;1.00;;;;;;7366627;19;20136;-71
2023/03/27 07:26:15;;;;;;;6.10;2.08;;;3.20;1.00;;;;;;7369801;19;20041;-72
2023/03/27 07:28:46;;;;;;;10.60;2.10;;;2.90;1.00;;;;;;7368640;19;20474;-71
2023/03/27 07:31:18;;;;;;;5.03;1.60;;;3.10;1.00;;;;;;7366838;19;20006;-71
2023/03/27 07:34:08;;;;;;;11.85;2.13;;;2.90;1.00;;;;;;7367198;19;20029;-71
2023/03/27 07:36:38;;;;;;;7.15;1.80;;;3.10;1.00;;;;;;7368094;19;20035;-72
2023/03/27 07:39:08;;;;;;;10.57;2.20;;;3.00;1.00;;;;;;7388550;19;20632;-72
2023/03/27 07:41:38;;;;;;;5.57;1.85;;;3.10;1.00;;;;;;7366815;19;20509;-71
2023/03/27 07:44:08;;;;;;;8.52;2.55;;;3.00;1.00;;;;;;7368140;19;20002;-71
2023/03/27 07:46:40;;;;;;;5.93;2.20;;;3.10;1.00;;;;;;7367571;19;20077;-71
2023/03/27 07:49:10;;;;;;;7.43;2.20;;;3.30;1.00;;;;;;7366834;19;20015;-72
2023/03/27 07:51:41;;;;;;;12.07;3.05;;;3.30;1.00;;;;;;7366730;19;20502;-71
2023/03/27 07:54:12;;;;;;;9.65;2.45;;;3.20;1.00;;;;;;7388729;19;20374;-71
2023/03/27 07:56:42;;;;;;;7.88;2.30;;;3.20;1.00;;;;;;7367741;19;20015;-72
2023/03/27 07:59:12;;;;;;;9.02;2.47;;;3.20;1.00;;;;;;7365441;19;20017;-71
2023/03/27 08:01:45;;;;;;;12.85;2.20;;;3.50;1.00;;;;;;7384397;19;20007;-72
2023/03/27 08:04:15;;;;;;;11.85;2.10;;;3.50;1.00;;;;;;7398890;19;20013;-72
2023/03/27 08:06:45;;;;;;;9.02;2.00;;;3.60;1.00;;;;;;7400135;19;20010;-71
2023/03/27 08:09:16;;;;;;;12.35;2.45;;;3.80;1.00;;;;;;7403848;19;20018;-71
2023/03/27 08:11:46;;;;;;;11.27;1.95;;;3.80;1.00;;;;;;7368130;19;20078;-72
2023/03/27 08:14:15;;;;;;;5.68;1.88;;;3.80;1.00;;;;;;7366665;19;20006;-73
2023/03/27 08:16:48;;;;;;;7.25;1.73;;;3.70;1.00;;;;;;7368271;19;20007;-72
2023/03/27 08:19:18;;;;;;;7.75;1.85;;;4.00;1.00;;;;;;7364713;19;20014;-71
2023/03/27 08:21:48;;;;;;;8.30;1.77;;;4.00;1.00;;;;;;7367393;19;20422;-72
2023/03/27 08:24:18;;;;;;;9.55;1.92;;;3.70;1.00;;;;;;7388661;19;20015;-72
2023/03/27 08:26:48;;;;;;;9.23;2.22;;;3.90;1.00;;;;;;7366801;19;20011;-71
2023/03/27 08:29:19;;;;;;;8.52;1.25;;;4.30;1.00;;;;;;7364174;19;20014;-72
2023/03/27 08:31:55;;;;;;;6.72;1.50;;;4.10;1.00;;;;;;7366007;19;20031;-71
2023/03/27 08:34:25;;;;;;;8.95;1.95;;;4.30;1.00;;;;;;7370680;19;20010;-72
2023/03/27 08:36:55;;;;;;;4.78;1.42;;;4.20;1.00;;;;;;7373289;19;20025;-72
2023/03/27 08:39:29;;;;;;;7.55;2.20;;;4.20;1.00;;;;;;7391825;19;20011;-72
2023/03/27 08:42:01;;;;;;;5.68;1.23;;;4.00;1.00;;;;;;7373193;19;20011;-72
2023/03/27 08:44:33;;;;;;;6.25;2.05;;;3.90;1.00;;;;;;7372043;19;20011;-71
2023/03/27 08:47:10;;;;;;;6.75;1.80;;;4.20;1.00;;;;;;7373097;19;20018;-72
2023/03/27 08:49:46;;;;;;;8.73;1.92;;;4.40;1.00;;;;;;7369923;19;20006;-71
2023/03/27 08:52:18;;;;;;;4.50;1.30;;;4.50;1.00;;;;;;7373510;19;20006;-72
2023/03/27 08:54:57;;;;;;;8.10;1.80;;;4.80;1.00;;;;;;7370743;19;20019;-72
2023/03/27 08:57:31;;;;;;;10.80;2.10;;;4.70;1.00;;;;;;7395645;19;20074;-72
2023/03/27 09:00:07;;;;;;;7.18;1.90;;;4.20;1.00;;;;;;7366809;19;20123;-71
2023/03/27 09:02:47;;;;;;;9.93;1.80;;;4.50;1.00;;;;;;7372348;19;20100;-72
2023/03/27 09:05:20;;;;;;;7.20;2.00;;;4.80;1.00;;;;;;7372349;19;20007;-71
2023/03/27 09:07:58;;;;;;;7.63;1.83;;;4.90;1.00;;;;;;7372483;19;20508;-71
2023/03/27 09:10:37;;;;;;;8.48;2.00;;;5.00;1.00;;;;;;7369150;19;20014;-72
2023/03/27 09:13:14;;;;;;;8.65;1.92;;;5.10;1.00;;;;;;7372749;19;20098;-72
2023/03/27 09:15:50;;;;;;;6.80;2.05;;;5.20;1.00;;;;;;7369417;19;20019;-72
2023/03/27 09:18:26;;;;;;;3.45;1.42;;;5.20;1.00;;;;;;7393913;19;20044;-72
2023/03/27 09:21:00;;;;;;;6.00;1.70;;;4.60;1.00;;;;;;7367378;19;20014;-72
2023/03/27 09:23:34;;;;;;;5.95;1.73;;;5.00;1.00;;;;;;7370798;19;20087;-72
2023/03/27 09:26:08;;;;;;;10.02;1.65;;;5.30;1.00;;;;;;7371782;19;20010;-72
2023/03/27 09:28:49;;;;;;;8.23;1.60;;;5.30;1.00;;;;;;7371710;19;20267;-71
2023/03/27 09:31:27;;;;;;;6.43;1.73;;;5.40;1.00;;;;;;7369154;19;20010;-72
2023/03/27 09:34:04;;;;;;;5.70;1.42;;;5.50;1.00;;;;;;7371517;19;20448;-72
2023/03/27 09:36:34;;;;;;;5.00;1.50;;;5.50;1.00;;;;;;7393398;19;20022;-72
2023/03/27 09:39:07;;;;;;;10.25;1.67;;;5.80;1.00;;;;;;7370804;19;20015;-72
2023/03/27 09:41:42;;;;;;;5.28;1.13;;;5.50;1.00;;;;;;7370587;19;20022;-72
2023/03/27 09:44:16;;;;;;;3.65;1.23;;;5.30;1.00;;;;;;7369771;19;20018;-72
2023/03/27 09:46:50;;;;;;;11.13;1.90;;;5.30;1.00;;;;;;7371744;19;20015;-72
2023/03/27 09:49:23;;;;;;;4.10;1.33;;;5.50;1.00;;;;;;7367846;19;20074;-73
2023/03/27 09:51:54;;;;;;;9.45;1.67;;;6.00;1.00;;;;;;7371374;19;20014;-72
2023/03/27 09:54:27;;;;;;;7.35;1.50;;;6.10;1.00;;;;;;7390599;19;20042;-73
2023/03/27 09:57:05;;;;;;;5.33;1.83;;;5.60;1.00;;;;;;7371351;19;20015;-72
2023/03/27 09:59:37;;;;;;;7.32;1.83;;;5.60;1.00;;;;;;7367464;19;20042;-72
2023/03/27 10:02:19;;;;;;;9.90;1.45;;;5.20;1.00;;;;;;7370939;19;20058;-72
2023/03/27 10:05:03;;;;;;;7.90;1.52;;;5.00;1.00;;;;;;7369843;19;20097;-72
2023/03/27 10:07:33;;;;;;;4.25;1.60;;;5.20;1.00;;;;;;7370180;19;20786;-72
2023/03/27 10:10:10;;;;;;;5.97;1.70;;;5.80;1.00;;;;;;7367355;19;20019;-71
2023/03/27 10:12:41;;;;;;;8.13;2.15;;;6.20;1.00;;;;;;7369720;19;20007;-72
2023/03/27 10:15:33;;;;;;;6.38;1.30;;;5.60;1.00;;;;;;7391542;19;20018;-73
2023/03/27 10:18:06;;;;;;;5.43;1.27;;;5.20;1.00;;;;;;7370650;19;20010;-73
2023/03/27 10:20:40;;;;;;;4.80;1.35;;;5.90;1.00;;;;;;7365755;19;20031;-72
2023/03/27 10:23:22;;;;;;;6.07;1.75;;;6.40;1.00;;;;;;7370168;19;20432;-73
2023/03/27 10:25:54;;;;;;;4.88;1.80;;;6.50;1.00;;;;;;7370323;19;20010;-73
2023/03/27 10:28:26;;;;;;;4.75;1.55;;;6.10;1.00;;;;;;7369268;19;20020;-70
2023/03/27 10:31:00;;;;;;;3.92;1.77;;;5.50;1.00;;;;;;7365933;19;20336;-74
2023/03/27 10:33:35;;;;;;;3.38;1.35;;;5.80;1.00;;;;;;7389970;19;20024;-73
2023/03/27 10:36:11;;;;;;;7.65;1.58;;;5.70;1.00;;;;;;7368971;19;20087;-74
2023/03/27 10:38:42;;;;;;;7.00;1.50;;;5.90;1.00;;;;;;7369107;19;20007;-73
2023/03/27 10:41:17;;;;;;;4.75;1.73;;;6.20;1.00;;;;;;7367599;19;20085;-72
2023/03/27 10:43:59;;;;;;;5.18;1.40;;;6.20;1.00;;;;;;7369791;19;20011;-73
2023/03/27 10:46:31;;;;;;;3.53;1.20;;;6.10;1.00;;;;;;7369350;19;20036;-72
2023/03/27 10:49:07;;;;;;;7.20;1.70;;;5.90;1.00;;;;;;7367542;19;20010;-72
2023/03/27 10:51:48;;;;;;;3.78;1.50;;;6.10;1.00;;;;;;7378143;19;20014;-73
2023/03/27 10:54:34;;;;;;;3.53;1.50;;;6.00;1.00;;;;;;7390652;19;20371;-73
2023/03/27 10:57:07;;;;;;;7.35;1.42;;;6.30;1.00;;;;;;7365946;19;20015;-72
2023/03/27 10:59:41;;;;;;;5.13;1.55;;;6.40;1.00;;;;;;7365765;19;20471;-74
2023/03/27 11:02:18;;;;;;;7.45;1.88;;;6.10;1.00;;;;;;7367864;19;20087;-73
2023/03/27 11:04:53;;;;;;;2.85;1.17;;;6.40;1.00;;;;;;7367045;19;20006;-73
2023/03/27 11:07:36;;;;;;;6.30;1.60;;;6.60;1.00;;;;;;7368666;19;20069;-73
2023/03/27 11:10:14;;;;;;;11.80;1.52;;;6.80;1.00;;;;;;7366659;19;20395;-72
2023/03/27 11:12:49;;;;;;;6.85;1.40;;;6.70;1.00;;;;;;7390684;19;20018;-72
2023/03/27 11:15:23;;;;;;;4.97;1.25;;;6.30;1.00;;;;;;7366230;19;20608;-72
2023/03/27 11:17:59;;;;;;;5.80;1.40;;;6.50;1.00;;;;;;7368064;19;20013;-72
2023/03/27 11:20:33;;;;;;;4.78;1.20;;;6.30;1.00;;;;;;7366148;19;20081;-72
2023/03/27 11:23:08;;;;;;;;;;;6.40;1.00;;;;;;7370112;19;20458;-72
2023/03/27 11:25:43;;;;;;;6.60;1.30;;;6.80;1.00;;;;;;7366741;19;19919;-72
2023/03/27 11:28:22;;;;;;;3.67;1.02;;;6.90;1.00;;;;;;7369213;19;20043;-72
2023/03/27 11:30:57;;;;;;;4.20;1.17;;;7.40;1.00;;;;;;7364864;19;20018;-72
2023/03/27 11:33:46;;;;;;;7.10;1.35;;;7.20;1.00;;;;;;7389552;19;20531;-72
2023/03/27 11:36:36;;;;;;;5.20;1.08;;;7.70;1.00;;;;;;7368272;19;20006;-72
2023/03/27 11:39:17;;;;;;;4.72;1.08;;;7.00;1.00;;;;;;7366115;19;20450;-72
2023/03/27 11:41:52;;;;;;;3.70;1.20;;;6.70;1.00;;;;;;7367495;19;20006;-71
2023/03/27 11:44:22;;;;;;;4.65;1.60;;;6.80;1.00;;;;;;7366526;19;20014;-72
2023/03/27 11:47:10;;;;;;;5.18;1.20;;;7.50;1.00;;;;;;7366946;19;20011;-72
2023/03/27 11:49:54;;;;;;;5.05;1.10;;;7.30;1.00;;;;;;7364469;19;20107;-72
2023/03/27 11:52:38;;;;;;;4.32;1.20;;;8.10;1.00;;;;;;7367728;19;20014;-72
2023/03/27 11:55:20;;;;;;;5.38;1.10;;;7.40;1.00;;;;;;7366734;19;20025;-72
2023/03/27 11:58:03;;;;;;;4.38;1.30;;;7.90;1.00;;;;;;7367330;19;20018;-72
2023/03/27 12:00:36;;;;;;;3.60;1.10;;;8.00;1.00;;;;;;7384338;19;20025;-73
2023/03/27 12:03:42;;;;;;;8.77;1.40;;;7.80;1.00;;;;;;7367746;19;20023;-72
2023/03/27 12:06:18;;;;;;;2.42;0.73;;;6.40;1.00;;;;;;7367007;19;20032;-73
2023/03/27 12:09:11;;;;;;;4.00;0.80;;;6.70;1.00;;;;;;7372260;19;20409;-72
2023/03/27 12:11:51;;;;;;;7.82;1.30;;;6.50;1.00;;;;;;7374635;19;20048;-72
2023/03/27 12:14:35;;;;;;;7.30;1.20;;;6.90;1.00;;;;;;7372817;19;20010;-72
2023/03/27 12:17:35;;;;;;;5.82;1.60;;;7.40;1.00;;;;;;7374806;19;20094;-72
2023/03/27 12:20:35;;;;;;;2.38;0.90;;;7.40;1.00;;;;;;7372475;19;20050;-73
2023/03/27 12:23:58;;;;;;;6.28;1.92;;;7.40;1.00;;;;;;7374612;19;20006;-72
2023/03/27 12:26:51;;;;;;;2.90;1.27;;;8.10;1.00;;;;;;7372770;19;20006;-72
2023/03/27 12:29:34;;;;;;;2.67;1.10;;;8.20;1.00;;;;;;7369357;19;20006;-73
2023/03/27 12:32:19;;;;;;;3.03;1.33;;;8.30;1.00;;;;;;7373417;19;20010;-72
2023/03/27 12:34:55;;;;;;;3.60;1.25;;;7.90;1.00;;;;;;7372777;19;20018;-72
2023/03/27 12:37:29;;;;;;;3.55;1.02;;;7.20;1.00;;;;;;7372309;19;19998;-72
2023/03/27 12:40:00;;;;;;;;;;;7.70;1.00;;;;;;7370864;19;20102;-72
2023/03/27 12:42:51;;;;;;;4.82;0.80;;;7.50;1.00;;;;;;7393799;19;19907;-72
2023/03/27 12:45:25;;;;;;;3.63;0.65;;;7.50;1.00;;;;;;7372487;19;20018;-72
2023/03/27 12:48:20;;;;;;;5.80;1.10;;;7.20;1.00;;;;;;7372846;19;20044;-72
2023/03/27 12:50:58;;;;;;;2.65;0.93;;;7.20;1.00;;;;;;7370391;19;20018;-73
2023/03/27 12:53:58;;;;;;;4.15;1.20;;;7.30;1.00;;;;;;7371831;19;20474;-73
2023/03/27 12:56:36;;;;;;;2.95;1.38;;;7.60;1.00;;;;;;7371670;19;20420;-72
2023/03/27 12:59:22;;;;;;;5.65;1.00;;;7.40;1.00;;;;;;7370078;19;20335;-71
2023/03/27 13:02:21;;;;;;;3.42;1.10;;;7.10;1.00;;;;;;7372356;19;20010;-72
2023/03/27 13:05:15;;;;;;;2.60;1.10;;;6.20;1.00;;;;;;7370707;19;20022;-72
2023/03/27 13:08:19;;;;;;;4.72;1.30;;;6.50;1.00;;;;;;7371812;19;20017;-73
2023/03/27 13:10:59;;;;;;;3.70;0.90;;;6.50;1.00;;;;;;7369363;19;20017;-73
2023/03/27 13:13:55;;;;;;;3.30;1.02;;;6.60;1.00;;;;;;7372630;19;20467;-72
2023/03/27 13:16:41;;;;;;;3.53;1.23;;;6.60;1.00;;;;;;7370428;19;20007;-73
2023/03/27 13:19:32;;;;;;;2.05;1.00;;;6.20;1.00;;;;;;7368604;19;20090;-73
2023/03/27 13:22:34;;;;;;;5.80;1.50;;;6.10;1.00;;;;;;7372672;19;20013;-73
2023/03/27 13:25:19;;;;;;;2.50;1.50;;;5.80;1.00;;;;;;7370672;19;20039;-73
2023/03/27 13:28:08;;;;;;;6.53;1.63;;;5.10;1.00;;;;;;7371417;19;20593;-72
2023/03/27 13:30:45;;;;;;;6.97;1.60;;;4.60;1.00;;;;;;7390300;19;20031;-73
2023/03/27 13:33:24;;;;;;;4.65;1.63;;;4.80;1.00;;;;;;7372253;19;20010;-72
2023/03/27 13:36:07;;;;;;;4.20;1.75;;;4.60;1.00;;;;;;7371966;19;20023;-71
2023/03/27 13:39:03;;;;;;;5.80;1.77;;;4.90;1.00;;;;;;7369625;19;20125;-72
2023/03/27 13:42:06;;;;;;;7.97;2.10;;;4.80;1.00;;;;;;7368330;19;20010;-71
2023/03/27 13:44:46;;;;;;;4.35;1.75;;;4.60;1.00;;;;;;7369730;19;20530;-74
2023/03/27 13:47:45;;;;;;;3.22;1.70;;;4.60;1.00;;;;;;7371001;19;20003;-72